Flight Track Log - Related Links

Times and Time Zones

All times are in EDT time to prevent confusion due to time zone crossing. See the SKW2953 flight status page for this flight to view local times or setup timezone preferences in your user account.

Time Position Orientation Groundspeed Altitude Reporting Facility
EDT Latitude Longitude Course Direction KTS MPH feet Rate Location/Type
Tue 04:53:57 PM 33.4333 -112.0333 248° West 84 97 1,700  Level Phoenix TRACON
Tue 04:54:51 PM 33.4167 -112.0833 248° West 181 208 3,500 2,087 Climbing Phoenix TRACON
Tue 04:55:52 PM 33.4000 -112.1500 253° West 257 296 5,700 2,579 Climbing Phoenix TRACON
Tue 04:56:52 PM 33.3500 -112.2000 220° Southwest 267 307 8,700 3,200 Climbing Phoenix TRACON
Tue 04:57:52 PM 33.2667 -112.2333 198° South 266 306 12,100 2,650 Climbing Phoenix TRACON
Tue 04:58:52 PM 33.2000 -112.2667 203° Southwest 266 306 14,000 905 Climbing Phoenix TRACON
Tue 04:59:58 PM 33.1614 -112.3322 235° Southwest 271 312 14,000  Level Albuquerque Center
Tue 05:01:00 PM 33.1156 -112.4069 234° Southwest 274 315 14,000  Level Albuquerque Center
Tue 05:02:02 PM 33.0594 -112.4992 234° Southwest 281 323 14,000  Level Albuquerque Center
Tue 05:03:04 PM 33.0136 -112.5750 234° Southwest 283 326 14,000  Level Albuquerque Center
Tue 05:04:05 PM 32.9689 -112.6508 235° Southwest 282 325 14,000  Level Albuquerque Center
Tue 05:05:07 PM 32.9472 -112.7375 253° West 284 327 14,000  Level Albuquerque Center
Tue 05:06:09 PM 32.9353 -112.8281 261° West 280 322 14,000  Level Albuquerque Center
Tue 05:07:11 PM 32.9242 -112.9161 261° West 275 316 14,000  Level Albuquerque Center
Tue 05:08:13 PM 32.9111 -113.0044 260° West 273 314 14,000  Level Albuquerque Center
Tue 05:09:14 PM 32.8969 -113.1131 261° West 274 315 14,000  Level Albuquerque Center
Tue 05:10:16 PM 32.8853 -113.2031 261° West 275 316 14,000  Level Albuquerque Center
Tue 05:11:18 PM 32.8728 -113.2933 261° West 277 319 14,000  Level Albuquerque Center
Tue 05:12:20 PM 32.8594 -113.3831 260° West 277 319 14,000  Level Albuquerque Center
Tue 05:13:21 PM 32.8478 -113.4717 261° West 276 318 14,000  Level Albuquerque Center
Tue 05:14:23 PM 32.8342 -113.5608 260° West 275 316 14,000 -48 Level Albuquerque Center
Tue 05:15:25 PM 32.8197 -113.6694 261° West 277 319 13,900 -581 Descending Albuquerque Center
Tue 05:16:27 PM 32.8078 -113.7553 261° West 271 312 12,800 -1,500 Descending Albuquerque Center
Tue 05:17:29 PM 32.7950 -113.8397 260° West 263 303 10,800 -1,707 Descending Albuquerque Center
Tue 05:18:30 PM 32.7839 -113.9217 261° West 257 296 9,300 -1,463 Descending Albuquerque Center
Tue 05:19:32 PM 32.7736 -114.0053 262° West 255 293 7,800 -1,258 Descending Albuquerque Center
Tue 05:20:34 PM 32.7717 -114.0911 268° West 259 298 6,700 -1,107 Descending Albuquerque Center
Tue 05:21:15 PM 32.7681 -114.1625 267° West 256 295 5,900 -1,059 Descending Los Angeles Center
Tue 05:21:59 PM 32.7606 -114.2133 260° West 250 288 5,200 -984 Descending Los Angeles Center
Tue 05:22:16 PM 32.7558 -114.2419 259° West 246 283 4,900 -871 Descending Los Angeles Center
Tue 05:23:01 PM 32.7483 -114.2936 260° West 247 284 4,300 -885 Descending Los Angeles Center
Tue 05:23:17 PM 32.7433 -114.3214 258° West 247 284 4,000 -868 Descending Los Angeles Center
Tue 05:24:17 PM 32.7083 -114.3942 240° Southwest 245 282 3,200 -722 Descending Los Angeles Center
Tue 05:25:05 PM 32.6894 -114.4375 243° Southwest 243 280 2,700 -1,036 Descending Los Angeles Center
Tue 05:26:07 PM 32.6614 -114.5078 245° Southwest 210 242 1,300 -968 Descending Los Angeles Center
Tue 05:27:09 PM 32.6625 -114.5561 272° West 176 203 700 -532 Descending Los Angeles Center
Tue 05:28:11 PM 32.6644 -114.5950 273° West 144 166 200 -484 Descending Los Angeles Center

Login

Don't have an account? Register now (free) for customized features, flight alerts, and more!